sensor_id;sensor_type;location;lat;lon;timestamp;P1;durP1;ratioP1;P2;durP2;ratioP2
69369;SDS011;56530;42.640;23.372;2023-07-22T00:00:40;10.25;;;6.07;;
69369;SDS011;56530;42.640;23.372;2023-07-22T00:03:05;14.73;;;6.07;;
69369;SDS011;56530;42.640;23.372;2023-07-22T00:05:31;11.53;;;6.10;;
69369;SDS011;56530;42.640;23.372;2023-07-22T00:07:56;13.43;;;6.00;;
69369;SDS011;56530;42.640;23.372;2023-07-22T00:10:22;10.80;;;5.63;;
69369;SDS011;56530;42.640;23.372;2023-07-22T00:12:47;14.20;;;5.65;;
69369;SDS011;56530;42.640;23.372;2023-07-22T00:15:12;10.87;;;6.23;;
69369;SDS011;56530;42.640;23.372;2023-07-22T00:17:38;8.23;;;5.63;;
69369;SDS011;56530;42.640;23.372;2023-07-22T00:20:05;13.60;;;6.47;;
69369;SDS011;56530;42.640;23.372;2023-07-22T00:22:34;15.23;;;6.20;;
69369;SDS011;56530;42.640;23.372;2023-07-22T00:25:00;11.43;;;6.18;;
69369;SDS011;56530;42.640;23.372;2023-07-22T00:27:26;11.10;;;5.93;;
69369;SDS011;56530;42.640;23.372;2023-07-22T00:29:52;14.57;;;6.40;;
69369;SDS011;56530;42.640;23.372;2023-07-22T00:32:17;12.20;;;6.23;;
69369;SDS011;56530;42.640;23.372;2023-07-22T00:34:43;13.37;;;5.83;;
69369;SDS011;56530;42.640;23.372;2023-07-22T00:37:08;15.05;;;5.97;;
69369;SDS011;56530;42.640;23.372;2023-07-22T00:39:33;14.10;;;6.23;;
69369;SDS011;56530;42.640;23.372;2023-07-22T00:41:59;9.70;;;5.70;;
69369;SDS011;56530;42.640;23.372;2023-07-22T00:44:25;10.10;;;5.50;;
69369;SDS011;56530;42.640;23.372;2023-07-22T00:46:51;14.40;;;6.30;;
69369;SDS011;56530;42.640;23.372;2023-07-22T00:49:22;12.65;;;5.80;;
69369;SDS011;56530;42.640;23.372;2023-07-22T00:51:48;10.50;;;5.60;;
69369;SDS011;56530;42.640;23.372;2023-07-22T00:54:13;12.63;;;6.53;;
69369;SDS011;56530;42.640;23.372;2023-07-22T00:56:39;10.50;;;5.57;;
69369;SDS011;56530;42.640;23.372;2023-07-22T00:59:05;13.25;;;6.55;;
69369;SDS011;56530;42.640;23.372;2023-07-22T01:01:31;10.48;;;5.50;;
69369;SDS011;56530;42.640;23.372;2023-07-22T01:03:56;12.23;;;5.72;;
69369;SDS011;56530;42.640;23.372;2023-07-22T01:06:22;11.52;;;5.70;;
69369;SDS011;56530;42.640;23.372;2023-07-22T01:08:49;15.18;;;6.00;;
69369;SDS011;56530;42.640;23.372;2023-07-22T01:11:15;11.38;;;6.05;;
69369;SDS011;56530;42.640;23.372;2023-07-22T01:13:40;11.45;;;6.00;;
69369;SDS011;56530;42.640;23.372;2023-07-22T01:16:06;16.25;;;5.57;;
69369;SDS011;56530;42.640;23.372;2023-07-22T01:18:34;10.80;;;5.45;;
69369;SDS011;56530;42.640;23.372;2023-07-22T01:21:00;14.80;;;5.97;;
69369;SDS011;56530;42.640;23.372;2023-07-22T01:23:26;8.23;;;5.17;;
69369;SDS011;56530;42.640;23.372;2023-07-22T01:25:51;11.57;;;5.30;;
69369;SDS011;56530;42.640;23.372;2023-07-22T01:28:17;8.03;;;5.33;;
69369;SDS011;56530;42.640;23.372;2023-07-22T01:30:42;12.37;;;5.60;;
69369;SDS011;56530;42.640;23.372;2023-07-22T01:33:08;12.23;;;5.17;;
69369;SDS011;56530;42.640;23.372;2023-07-22T01:35:33;10.47;;;4.70;;
69369;SDS011;56530;42.640;23.372;2023-07-22T01:37:58;8.45;;;5.03;;
69369;SDS011;56530;42.640;23.372;2023-07-22T01:40:25;6.82;;;4.95;;
69369;SDS011;56530;42.640;23.372;2023-07-22T01:42:50;6.03;;;4.70;;
69369;SDS011;56530;42.640;23.372;2023-07-22T01:45:15;7.57;;;4.47;;
69369;SDS011;56530;42.640;23.372;2023-07-22T01:47:41;6.60;;;4.70;;
69369;SDS011;56530;42.640;23.372;2023-07-22T01:50:06;8.23;;;5.10;;
69369;SDS011;56530;42.640;23.372;2023-07-22T01:52:32;5.90;;;4.75;;
69369;SDS011;56530;42.640;23.372;2023-07-22T01:54:58;8.30;;;4.57;;
69369;SDS011;56530;42.640;23.372;2023-07-22T01:57:23;7.90;;;4.80;;
69369;SDS011;56530;42.640;23.372;2023-07-22T01:59:48;8.50;;;4.90;;
69369;SDS011;56530;42.640;23.372;2023-07-22T02:02:14;15.03;;;5.13;;
69369;SDS011;56530;42.640;23.372;2023-07-22T02:04:39;8.98;;;4.88;;
69369;SDS011;56530;42.640;23.372;2023-07-22T02:07:05;6.93;;;4.07;;
69369;SDS011;56530;42.640;23.372;2023-07-22T02:09:31;6.55;;;5.07;;
69369;SDS011;56530;42.640;23.372;2023-07-22T02:11:57;6.70;;;4.78;;
69369;SDS011;56530;42.640;23.372;2023-07-22T02:14:23;7.63;;;4.93;;
69369;SDS011;56530;42.640;23.372;2023-07-22T02:16:48;9.83;;;4.87;;
69369;SDS011;56530;42.640;23.372;2023-07-22T02:19:14;7.27;;;4.70;;
69369;SDS011;56530;42.640;23.372;2023-07-22T02:21:40;10.40;;;5.40;;
69369;SDS011;56530;42.640;23.372;2023-07-22T02:24:06;10.02;;;4.97;;
69369;SDS011;56530;42.640;23.372;2023-07-22T02:26:32;8.60;;;4.75;;
69369;SDS011;56530;42.640;23.372;2023-07-22T02:28:58;6.15;;;5.22;;
69369;SDS011;56530;42.640;23.372;2023-07-22T02:31:23;8.77;;;5.07;;
69369;SDS011;56530;42.640;23.372;2023-07-22T02:33:50;5.65;;;4.70;;
69369;SDS011;56530;42.640;23.372;2023-07-22T02:36:15;8.37;;;5.47;;
69369;SDS011;56530;42.640;23.372;2023-07-22T02:38:41;6.47;;;4.83;;
69369;SDS011;56530;42.640;23.372;2023-07-22T02:41:07;11.37;;;4.60;;
69369;SDS011;56530;42.640;23.372;2023-07-22T02:43:33;12.40;;;5.53;;
69369;SDS011;56530;42.640;23.372;2023-07-22T02:46:02;6.25;;;4.70;;
69369;SDS011;56530;42.640;23.372;2023-07-22T02:48:29;6.90;;;4.30;;
69369;SDS011;56530;42.640;23.372;2023-07-22T02:50:55;7.68;;;5.30;;
69369;SDS011;56530;42.640;23.372;2023-07-22T02:53:20;6.93;;;4.70;;
69369;SDS011;56530;42.640;23.372;2023-07-22T02:55:45;7.13;;;4.80;;
69369;SDS011;56530;42.640;23.372;2023-07-22T02:58:11;7.73;;;5.00;;
69369;SDS011;56530;42.640;23.372;2023-07-22T03:00:37;7.57;;;5.13;;
69369;SDS011;56530;42.640;23.372;2023-07-22T03:03:02;14.50;;;5.43;;
69369;SDS011;56530;42.640;23.372;2023-07-22T03:05:30;11.10;;;4.88;;
69369;SDS011;56530;42.640;23.372;2023-07-22T03:07:56;7.05;;;4.97;;
69369;SDS011;56530;42.640;23.372;2023-07-22T03:10:22;7.13;;;5.18;;
69369;SDS011;56530;42.640;23.372;2023-07-22T03:12:48;8.63;;;5.17;;
69369;SDS011;56530;42.640;23.372;2023-07-22T03:15:13;13.02;;;5.53;;
69369;SDS011;56530;42.640;23.372;2023-07-22T03:17:42;11.03;;;5.47;;
69369;SDS011;56530;42.640;23.372;2023-07-22T03:20:07;10.10;;;5.73;;
69369;SDS011;56530;42.640;23.372;2023-07-22T03:22:43;13.85;;;5.90;;
69369;SDS011;56530;42.640;23.372;2023-07-22T03:25:09;10.23;;;6.25;;
69369;SDS011;56530;42.640;23.372;2023-07-22T03:27:35;11.07;;;5.87;;
69369;SDS011;56530;42.640;23.372;2023-07-22T03:30:02;10.50;;;6.03;;
69369;SDS011;56530;42.640;23.372;2023-07-22T03:32:28;12.20;;;5.93;;
69369;SDS011;56530;42.640;23.372;2023-07-22T03:34:53;16.73;;;5.80;;
69369;SDS011;56530;42.640;23.372;2023-07-22T03:37:18;8.35;;;5.63;;
69369;SDS011;56530;42.640;23.372;2023-07-22T03:39:45;10.60;;;5.67;;
69369;SDS011;56530;42.640;23.372;2023-07-22T03:42:10;13.47;;;5.80;;
69369;SDS011;56530;42.640;23.372;2023-07-22T03:44:36;16.43;;;6.03;;
69369;SDS011;56530;42.640;23.372;2023-07-22T03:47:01;9.00;;;5.97;;
69369;SDS011;56530;42.640;23.372;2023-07-22T03:49:27;13.43;;;6.43;;
69369;SDS011;56530;42.640;23.372;2023-07-22T03:51:53;8.33;;;5.63;;
69369;SDS011;56530;42.640;23.372;2023-07-22T03:54:18;10.77;;;5.50;;
69369;SDS011;56530;42.640;23.372;2023-07-22T03:56:43;9.67;;;5.90;;
69369;SDS011;56530;42.640;23.372;2023-07-22T03:59:09;9.70;;;5.80;;
69369;SDS011;56530;42.640;23.372;2023-07-22T04:01:34;12.23;;;6.67;;
69369;SDS011;56530;42.640;23.372;2023-07-22T04:03:59;12.30;;;6.30;;
69369;SDS011;56530;42.640;23.372;2023-07-22T04:06:25;14.03;;;6.70;;
69369;SDS011;56530;42.640;23.372;2023-07-22T04:08:51;8.93;;;5.70;;
69369;SDS011;56530;42.640;23.372;2023-07-22T04:11:16;17.60;;;6.63;;
69369;SDS011;56530;42.640;23.372;2023-07-22T04:13:42;10.73;;;6.53;;
69369;SDS011;56530;42.640;23.372;2023-07-22T04:16:07;14.40;;;5.87;;
69369;SDS011;56530;42.640;23.372;2023-07-22T04:18:32;9.27;;;5.83;;
69369;SDS011;56530;42.640;23.372;2023-07-22T04:20:59;10.57;;;5.90;;
69369;SDS011;56530;42.640;23.372;2023-07-22T04:23:25;13.07;;;6.32;;
69369;SDS011;56530;42.640;23.372;2023-07-22T04:25:51;15.07;;;6.95;;
69369;SDS011;56530;42.640;23.372;2023-07-22T04:28:16;10.10;;;6.07;;
69369;SDS011;56530;42.640;23.372;2023-07-22T04:30:41;10.10;;;5.80;;
69369;SDS011;56530;42.640;23.372;2023-07-22T04:33:07;11.20;;;6.63;;
69369;SDS011;56530;42.640;23.372;2023-07-22T04:35:40;7.85;;;5.90;;
69369;SDS011;56530;42.640;23.372;2023-07-22T04:38:06;9.60;;;6.50;;
69369;SDS011;56530;42.640;23.372;2023-07-22T04:40:31;11.13;;;5.87;;
69369;SDS011;56530;42.640;23.372;2023-07-22T04:42:57;14.57;;;6.50;;
69369;SDS011;56530;42.640;23.372;2023-07-22T04:45:22;12.35;;;6.93;;
69369;SDS011;56530;42.640;23.372;2023-07-22T04:47:52;10.90;;;6.45;;
69369;SDS011;56530;42.640;23.372;2023-07-22T04:50:17;9.80;;;6.10;;
69369;SDS011;56530;42.640;23.372;2023-07-22T04:52:44;12.80;;;6.47;;
69369;SDS011;56530;42.640;23.372;2023-07-22T04:55:11;13.80;;;6.68;;
69369;SDS011;56530;42.640;23.372;2023-07-22T04:57:38;17.25;;;7.47;;
69369;SDS011;56530;42.640;23.372;2023-07-22T05:00:05;15.80;;;7.47;;
69369;SDS011;56530;42.640;23.372;2023-07-22T05:02:34;11.10;;;6.80;;
69369;SDS011;56530;42.640;23.372;2023-07-22T05:05:00;9.85;;;6.90;;
69369;SDS011;56530;42.640;23.372;2023-07-22T05:07:26;11.85;;;6.70;;
69369;SDS011;56530;42.640;23.372;2023-07-22T05:09:51;10.50;;;6.57;;
69369;SDS011;56530;42.640;23.372;2023-07-22T05:12:17;10.50;;;6.63;;
69369;SDS011;56530;42.640;23.372;2023-07-22T05:14:44;15.63;;;6.80;;
69369;SDS011;56530;42.640;23.372;2023-07-22T05:17:10;12.32;;;6.68;;
69369;SDS011;56530;42.640;23.372;2023-07-22T05:19:35;12.63;;;7.37;;
69369;SDS011;56530;42.640;23.372;2023-07-22T05:22:01;13.57;;;7.17;;
69369;SDS011;56530;42.640;23.372;2023-07-22T05:24:26;8.32;;;6.43;;
69369;SDS011;56530;42.640;23.372;2023-07-22T05:26:52;14.30;;;7.33;;
69369;SDS011;56530;42.640;23.372;2023-07-22T05:29:17;12.90;;;7.07;;
69369;SDS011;56530;42.640;23.372;2023-07-22T05:31:42;10.70;;;6.95;;
69369;SDS011;56530;42.640;23.372;2023-07-22T05:34:09;13.03;;;7.83;;
69369;SDS011;56530;42.640;23.372;2023-07-22T05:36:34;11.67;;;7.87;;
69369;SDS011;56530;42.640;23.372;2023-07-22T05:39:00;10.85;;;7.25;;
69369;SDS011;56530;42.640;23.372;2023-07-22T05:41:25;14.07;;;7.50;;
69369;SDS011;56530;42.640;23.372;2023-07-22T05:43:51;14.97;;;7.63;;
69369;SDS011;56530;42.640;23.372;2023-07-22T05:46:16;18.30;;;7.65;;
69369;SDS011;56530;42.640;23.372;2023-07-22T05:48:42;10.33;;;7.53;;
69369;SDS011;56530;42.640;23.372;2023-07-22T05:51:07;14.03;;;7.67;;
69369;SDS011;56530;42.640;23.372;2023-07-22T05:53:33;12.32;;;7.63;;
69369;SDS011;56530;42.640;23.372;2023-07-22T05:55:58;13.85;;;7.70;;
69369;SDS011;56530;42.640;23.372;2023-07-22T05:58:24;10.10;;;7.27;;
69369;SDS011;56530;42.640;23.372;2023-07-22T06:00:49;14.70;;;6.97;;
69369;SDS011;56530;42.640;23.372;2023-07-22T06:03:17;62.35;;;13.30;;
69369;SDS011;56530;42.640;23.372;2023-07-22T06:05:42;18.08;;;7.53;;
69369;SDS011;56530;42.640;23.372;2023-07-22T06:08:08;17.50;;;8.10;;
69369;SDS011;56530;42.640;23.372;2023-07-22T06:10:33;10.63;;;6.73;;
69369;SDS011;56530;42.640;23.372;2023-07-22T06:12:59;13.45;;;7.18;;
69369;SDS011;56530;42.640;23.372;2023-07-22T06:15:24;14.90;;;8.02;;
69369;SDS011;56530;42.640;23.372;2023-07-22T06:17:52;10.70;;;7.38;;
69369;SDS011;56530;42.640;23.372;2023-07-22T06:20:17;15.20;;;7.80;;
69369;SDS011;56530;42.640;23.372;2023-07-22T06:22:43;9.20;;;6.80;;
69369;SDS011;56530;42.640;23.372;2023-07-22T06:25:08;12.23;;;7.17;;
69369;SDS011;56530;42.640;23.372;2023-07-22T06:27:34;12.03;;;7.47;;
69369;SDS011;56530;42.640;23.372;2023-07-22T06:30:00;12.15;;;7.07;;
69369;SDS011;56530;42.640;23.372;2023-07-22T06:32:25;12.87;;;7.63;;
69369;SDS011;56530;42.640;23.372;2023-07-22T06:34:51;12.40;;;7.10;;
69369;SDS011;56530;42.640;23.372;2023-07-22T06:37:16;36.40;;;9.00;;
69369;SDS011;56530;42.640;23.372;2023-07-22T06:39:42;14.33;;;7.53;;
69369;SDS011;56530;42.640;23.372;2023-07-22T06:42:07;12.05;;;7.63;;
69369;SDS011;56530;42.640;23.372;2023-07-22T06:44:32;14.57;;;7.37;;
69369;SDS011;56530;42.640;23.372;2023-07-22T06:46:58;10.60;;;7.57;;
69369;SDS011;56530;42.640;23.372;2023-07-22T06:49:23;12.87;;;8.03;;
69369;SDS011;56530;42.640;23.372;2023-07-22T06:51:49;14.43;;;7.37;;
69369;SDS011;56530;42.640;23.372;2023-07-22T06:54:14;15.35;;;7.85;;
69369;SDS011;56530;42.640;23.372;2023-07-22T06:56:40;13.47;;;8.73;;
69369;SDS011;56530;42.640;23.372;2023-07-22T06:59:06;11.48;;;8.05;;
69369;SDS011;56530;42.640;23.372;2023-07-22T07:01:32;17.50;;;8.10;;
69369;SDS011;56530;42.640;23.372;2023-07-22T07:03:57;14.27;;;8.10;;
69369;SDS011;56530;42.640;23.372;2023-07-22T07:06:22;16.93;;;8.90;;
69369;SDS011;56530;42.640;23.372;2023-07-22T07:08:48;13.05;;;10.88;;
69369;SDS011;56530;42.640;23.372;2023-07-22T07:11:14;15.13;;;8.93;;
69369;SDS011;56530;42.640;23.372;2023-07-22T07:13:39;15.37;;;8.47;;
69369;SDS011;56530;42.640;23.372;2023-07-22T07:16:20;13.40;;;8.80;;
69369;SDS011;56530;42.640;23.372;2023-07-22T07:18:50;14.10;;;8.68;;
69369;SDS011;56530;42.640;23.372;2023-07-22T07:21:16;13.82;;;9.10;;
69369;SDS011;56530;42.640;23.372;2023-07-22T07:23:42;14.93;;;8.50;;
69369;SDS011;56530;42.640;23.372;2023-07-22T07:26:08;13.98;;;7.95;;
69369;SDS011;56530;42.640;23.372;2023-07-22T07:28:34;16.23;;;9.00;;
69369;SDS011;56530;42.640;23.372;2023-07-22T07:30:59;13.63;;;8.03;;
69369;SDS011;56530;42.640;23.372;2023-07-22T07:33:24;12.43;;;7.70;;
69369;SDS011;56530;42.640;23.372;2023-07-22T07:35:50;11.47;;;8.10;;
69369;SDS011;56530;42.640;23.372;2023-07-22T07:38:16;13.83;;;8.90;;
69369;SDS011;56530;42.640;23.372;2023-07-22T07:40:41;16.10;;;8.07;;
69369;SDS011;56530;42.640;23.372;2023-07-22T07:43:07;28.30;;;22.23;;
69369;SDS011;56530;42.640;23.372;2023-07-22T07:45:32;12.40;;;8.63;;
69369;SDS011;56530;42.640;23.372;2023-07-22T07:47:58;26.90;;;8.57;;
69369;SDS011;56530;42.640;23.372;2023-07-22T07:50:23;13.93;;;8.37;;
69369;SDS011;56530;42.640;23.372;2023-07-22T07:52:48;15.53;;;8.17;;
69369;SDS011;56530;42.640;23.372;2023-07-22T07:55:15;14.63;;;7.78;;
69369;SDS011;56530;42.640;23.372;2023-07-22T07:57:41;15.15;;;8.35;;
69369;SDS011;56530;42.640;23.372;2023-07-22T08:00:06;14.00;;;7.38;;
69369;SDS011;56530;42.640;23.372;2023-07-22T08:02:34;12.73;;;7.93;;
69369;SDS011;56530;42.640;23.372;2023-07-22T08:05:00;15.65;;;8.68;;
69369;SDS011;56530;42.640;23.372;2023-07-22T08:07:26;15.00;;;8.93;;
69369;SDS011;56530;42.640;23.372;2023-07-22T08:09:51;15.17;;;9.37;;
69369;SDS011;56530;42.640;23.372;2023-07-22T08:12:17;16.05;;;9.55;;
69369;SDS011;56530;42.640;23.372;2023-07-22T08:14:43;15.35;;;9.30;;
69369;SDS011;56530;42.640;23.372;2023-07-22T08:17:09;22.47;;;8.57;;
69369;SDS011;56530;42.640;23.372;2023-07-22T08:19:34;19.47;;;9.10;;
69369;SDS011;56530;42.640;23.372;2023-07-22T08:22:00;16.00;;;8.63;;
69369;SDS011;56530;42.640;23.372;2023-07-22T08:24:25;16.05;;;9.00;;
69369;SDS011;56530;42.640;23.372;2023-07-22T08:26:51;16.03;;;9.20;;
69369;SDS011;56530;42.640;23.372;2023-07-22T08:29:16;14.83;;;8.80;;
69369;SDS011;56530;42.640;23.372;2023-07-22T08:31:42;15.10;;;8.77;;
69369;SDS011;56530;42.640;23.372;2023-07-22T08:34:07;15.83;;;8.60;;
69369;SDS011;56530;42.640;23.372;2023-07-22T08:36:32;13.10;;;8.90;;
69369;SDS011;56530;42.640;23.372;2023-07-22T08:38:58;17.75;;;9.43;;
69369;SDS011;56530;42.640;23.372;2023-07-22T08:41:23;24.30;;;8.97;;
69369;SDS011;56530;42.640;23.372;2023-07-22T08:43:50;13.15;;;9.02;;
69369;SDS011;56530;42.640;23.372;2023-07-22T08:46:16;15.23;;;8.80;;
69369;SDS011;56530;42.640;23.372;2023-07-22T08:48:46;23.55;;;10.15;;
69369;SDS011;56530;42.640;23.372;2023-07-22T08:51:15;21.42;;;9.48;;
69369;SDS011;56530;42.640;23.372;2023-07-22T08:53:41;15.43;;;9.27;;
69369;SDS011;56530;42.640;23.372;2023-07-22T08:56:08;15.07;;;9.10;;
69369;SDS011;56530;42.640;23.372;2023-07-22T08:58:35;14.80;;;9.07;;
69369;SDS011;56530;42.640;23.372;2023-07-22T09:01:01;13.43;;;8.60;;
69369;SDS011;56530;42.640;23.372;2023-07-22T09:03:27;20.90;;;10.38;;
69369;SDS011;56530;42.640;23.372;2023-07-22T09:05:53;16.45;;;9.05;;
69369;SDS011;56530;42.640;23.372;2023-07-22T09:08:19;15.00;;;9.07;;
69369;SDS011;56530;42.640;23.372;2023-07-22T09:10:44;16.97;;;8.93;;
69369;SDS011;56530;42.640;23.372;2023-07-22T09:13:11;18.92;;;9.02;;
69369;SDS011;56530;42.640;23.372;2023-07-22T09:15:38;14.10;;;8.98;;
69369;SDS011;56530;42.640;23.372;2023-07-22T09:18:04;15.00;;;8.90;;
69369;SDS011;56530;42.640;23.372;2023-07-22T09:20:29;16.63;;;9.07;;
69369;SDS011;56530;42.640;23.372;2023-07-22T09:22:55;24.70;;;9.23;;
69369;SDS011;56530;42.640;23.372;2023-07-22T09:25:22;16.30;;;8.93;;
69369;SDS011;56530;42.640;23.372;2023-07-22T09:27:49;15.93;;;8.40;;
69369;SDS011;56530;42.640;23.372;2023-07-22T09:30:25;15.15;;;8.68;;
69369;SDS011;56530;42.640;23.372;2023-07-22T09:32:52;14.23;;;8.50;;
69369;SDS011;56530;42.640;23.372;2023-07-22T09:35:19;15.65;;;7.90;;
69369;SDS011;56530;42.640;23.372;2023-07-22T09:37:45;18.92;;;8.52;;
69369;SDS011;56530;42.640;23.372;2023-07-22T09:40:14;17.02;;;8.35;;
69369;SDS011;56530;42.640;23.372;2023-07-22T09:42:48;17.50;;;8.57;;
69369;SDS011;56530;42.640;23.372;2023-07-22T09:45:15;19.77;;;8.73;;
69369;SDS011;56530;42.640;23.372;2023-07-22T09:47:41;21.17;;;8.65;;
69369;SDS011;56530;42.640;23.372;2023-07-22T09:50:10;16.53;;;8.30;;
69369;SDS011;56530;42.640;23.372;2023-07-22T09:52:49;17.67;;;8.10;;
69369;SDS011;56530;42.640;23.372;2023-07-22T09:55:23;15.63;;;8.73;;
69369;SDS011;56530;42.640;23.372;2023-07-22T09:57:54;16.85;;;8.40;;
69369;SDS011;56530;42.640;23.372;2023-07-22T10:00:20;19.27;;;8.63;;
69369;SDS011;56530;42.640;23.372;2023-07-22T10:02:47;19.35;;;9.38;;
69369;SDS011;56530;42.640;23.372;2023-07-22T10:05:20;24.43;;;9.50;;
69369;SDS011;56530;42.640;23.372;2023-07-22T10:07:48;19.30;;;9.07;;
69369;SDS011;56530;42.640;23.372;2023-07-22T10:10:16;16.35;;;8.70;;
69369;SDS011;56530;42.640;23.372;2023-07-22T10:12:43;20.57;;;9.00;;
69369;SDS011;56530;42.640;23.372;2023-07-22T10:15:09;20.33;;;9.00;;
69369;SDS011;56530;42.640;23.372;2023-07-22T10:17:36;17.17;;;8.95;;
69369;SDS011;56530;42.640;23.372;2023-07-22T10:20:02;21.70;;;9.13;;
69369;SDS011;56530;42.640;23.372;2023-07-22T10:22:33;23.73;;;9.60;;
69369;SDS011;56530;42.640;23.372;2023-07-22T10:25:00;20.33;;;8.90;;
69369;SDS011;56530;42.640;23.372;2023-07-22T10:27:27;22.50;;;9.88;;
69369;SDS011;56530;42.640;23.372;2023-07-22T10:29:54;22.93;;;8.73;;
69369;SDS011;56530;42.640;23.372;2023-07-22T10:32:20;18.73;;;8.95;;
69369;SDS011;56530;42.640;23.372;2023-07-22T10:34:45;19.83;;;8.77;;
69369;SDS011;56530;42.640;23.372;2023-07-22T10:37:10;16.60;;;8.37;;
69369;SDS011;56530;42.640;23.372;2023-07-22T10:39:36;17.63;;;8.93;;
69369;SDS011;56530;42.640;23.372;2023-07-22T10:42:05;23.58;;;9.30;;
69369;SDS011;56530;42.640;23.372;2023-07-22T10:44:37;18.42;;;8.57;;
69369;SDS011;56530;42.640;23.372;2023-07-22T10:47:04;24.38;;;8.35;;
69369;SDS011;56530;42.640;23.372;2023-07-22T10:49:42;21.20;;;8.53;;
69369;SDS011;56530;42.640;23.372;2023-07-22T10:52:10;21.45;;;8.45;;
69369;SDS011;56530;42.640;23.372;2023-07-22T10:54:36;21.73;;;7.70;;
69369;SDS011;56530;42.640;23.372;2023-07-22T10:57:02;21.13;;;9.65;;
69369;SDS011;56530;42.640;23.372;2023-07-22T10:59:49;23.55;;;8.35;;
69369;SDS011;56530;42.640;23.372;2023-07-22T11:02:25;26.50;;;8.50;;
69369;SDS011;56530;42.640;23.372;2023-07-22T11:04:52;24.40;;;8.00;;
69369;SDS011;56530;42.640;23.372;2023-07-22T11:07:34;31.95;;;8.90;;
69369;SDS011;56530;42.640;23.372;2023-07-22T11:10:15;26.48;;;7.93;;
69369;SDS011;56530;42.640;23.372;2023-07-22T11:12:45;30.33;;;8.68;;
69369;SDS011;56530;42.640;23.372;2023-07-22T11:15:10;30.23;;;7.45;;
69369;SDS011;56530;42.640;23.372;2023-07-22T11:17:37;29.83;;;7.67;;
69369;SDS011;56530;42.640;23.372;2023-07-22T11:20:02;34.95;;;7.75;;
69369;SDS011;56530;42.640;23.372;2023-07-22T11:22:28;34.67;;;8.65;;
69369;SDS011;56530;42.640;23.372;2023-07-22T11:24:56;29.02;;;9.25;;
69369;SDS011;56530;42.640;23.372;2023-07-22T11:27:25;23.67;;;6.78;;
69369;SDS011;56530;42.640;23.372;2023-07-22T11:29:51;35.58;;;7.80;;
69369;SDS011;56530;42.640;23.372;2023-07-22T11:32:17;28.13;;;8.10;;
69369;SDS011;56530;42.640;23.372;2023-07-22T11:34:44;19.85;;;7.18;;
69369;SDS011;56530;42.640;23.372;2023-07-22T11:37:10;23.90;;;7.30;;
69369;SDS011;56530;42.640;23.372;2023-07-22T11:39:35;26.10;;;7.07;;
69369;SDS011;56530;42.640;23.372;2023-07-22T11:42:03;24.00;;;7.30;;
69369;SDS011;56530;42.640;23.372;2023-07-22T11:44:29;26.93;;;7.30;;
69369;SDS011;56530;42.640;23.372;2023-07-22T11:46:59;35.90;;;8.38;;
69369;SDS011;56530;42.640;23.372;2023-07-22T11:49:46;23.80;;;7.35;;
69369;SDS011;56530;42.640;23.372;2023-07-22T11:52:16;32.25;;;7.45;;
69369;SDS011;56530;42.640;23.372;2023-07-22T11:54:45;22.98;;;7.50;;
69369;SDS011;56530;42.640;23.372;2023-07-22T11:59:39;29.05;;;7.78;;
69369;SDS011;56530;42.640;23.372;2023-07-22T12:02:05;31.25;;;7.35;;
69369;SDS011;56530;42.640;23.372;2023-07-22T12:04:32;28.30;;;7.88;;
69369;SDS011;56530;42.640;23.372;2023-07-22T12:07:00;23.30;;;8.03;;
69369;SDS011;56530;42.640;23.372;2023-07-22T12:09:26;25.63;;;8.05;;
69369;SDS011;56530;42.640;23.372;2023-07-22T12:11:58;23.42;;;7.60;;
69369;SDS011;56530;42.640;23.372;2023-07-22T12:14:25;32.60;;;8.38;;
69369;SDS011;56530;42.640;23.372;2023-07-22T12:16:58;28.58;;;7.53;;
69369;SDS011;56530;42.640;23.372;2023-07-22T12:19:24;26.08;;;7.90;;
69369;SDS011;56530;42.640;23.372;2023-07-22T12:21:52;33.13;;;7.50;;
69369;SDS011;56530;42.640;23.372;2023-07-22T12:24:18;24.70;;;7.97;;
69369;SDS011;56530;42.640;23.372;2023-07-22T12:26:43;24.37;;;7.03;;
69369;SDS011;56530;42.640;23.372;2023-07-22T12:29:09;34.90;;;8.70;;
69369;SDS011;56530;42.640;23.372;2023-07-22T12:31:34;26.43;;;8.47;;
69369;SDS011;56530;42.640;23.372;2023-07-22T12:34:00;30.53;;;8.33;;
69369;SDS011;56530;42.640;23.372;2023-07-22T12:36:25;32.87;;;7.90;;
69369;SDS011;56530;42.640;23.372;2023-07-22T12:38:51;26.83;;;6.57;;
69369;SDS011;56530;42.640;23.372;2023-07-22T12:41:16;26.97;;;7.50;;
69369;SDS011;56530;42.640;23.372;2023-07-22T12:43:42;22.60;;;7.15;;
69369;SDS011;56530;42.640;23.372;2023-07-22T12:46:07;21.50;;;7.57;;
69369;SDS011;56530;42.640;23.372;2023-07-22T12:48:32;24.20;;;7.65;;
69369;SDS011;56530;42.640;23.372;2023-07-22T12:50:58;27.70;;;7.20;;
69369;SDS011;56530;42.640;23.372;2023-07-22T12:53:24;23.37;;;7.67;;
69369;SDS011;56530;42.640;23.372;2023-07-22T12:55:49;26.88;;;6.88;;
69369;SDS011;56530;42.640;23.372;2023-07-22T12:58:15;24.63;;;7.17;;
69369;SDS011;56530;42.640;23.372;2023-07-22T13:00:40;27.40;;;7.40;;
69369;SDS011;56530;42.640;23.372;2023-07-22T13:03:06;27.80;;;7.40;;
69369;SDS011;56530;42.640;23.372;2023-07-22T13:05:31;23.67;;;7.83;;
69369;SDS011;56530;42.640;23.372;2023-07-22T13:07:57;31.00;;;7.53;;
69369;SDS011;56530;42.640;23.372;2023-07-22T13:10:26;34.72;;;7.65;;
69369;SDS011;56530;42.640;23.372;2023-07-22T13:12:53;21.13;;;7.18;;
69369;SDS011;56530;42.640;23.372;2023-07-22T13:15:19;26.90;;;7.75;;
69369;SDS011;56530;42.640;23.372;2023-07-22T13:17:44;22.30;;;7.43;;
69369;SDS011;56530;42.640;23.372;2023-07-22T13:20:10;32.13;;;8.32;;
69369;SDS011;56530;42.640;23.372;2023-07-22T13:22:37;26.10;;;7.35;;
69369;SDS011;56530;42.640;23.372;2023-07-22T13:25:05;29.38;;;7.82;;
69369;SDS011;56530;42.640;23.372;2023-07-22T13:27:31;30.85;;;7.53;;
69369;SDS011;56530;42.640;23.372;2023-07-22T13:29:56;25.35;;;7.28;;
69369;SDS011;56530;42.640;23.372;2023-07-22T13:32:22;38.28;;;8.63;;
69369;SDS011;56530;42.640;23.372;2023-07-22T13:34:48;24.95;;;7.20;;
69369;SDS011;56530;42.640;23.372;2023-07-22T13:37:13;25.77;;;7.30;;
69369;SDS011;56530;42.640;23.372;2023-07-22T13:39:39;30.53;;;7.00;;
69369;SDS011;56530;42.640;23.372;2023-07-22T13:42:04;27.20;;;6.83;;
69369;SDS011;56530;42.640;23.372;2023-07-22T13:44:30;23.43;;;6.87;;
69369;SDS011;56530;42.640;23.372;2023-07-22T13:46:56;33.10;;;7.70;;
69369;SDS011;56530;42.640;23.372;2023-07-22T13:49:21;27.35;;;7.35;;
69369;SDS011;56530;42.640;23.372;2023-07-22T13:51:46;27.50;;;8.13;;
69369;SDS011;56530;42.640;23.372;2023-07-22T13:54:12;26.17;;;7.13;;
69369;SDS011;56530;42.640;23.372;2023-07-22T13:56:37;28.40;;;7.23;;
69369;SDS011;56530;42.640;23.372;2023-07-22T13:59:05;28.50;;;7.35;;
69369;SDS011;56530;42.640;23.372;2023-07-22T14:01:31;23.50;;;6.60;;
69369;SDS011;56530;42.640;23.372;2023-07-22T14:03:56;23.05;;;6.93;;
69369;SDS011;56530;42.640;23.372;2023-07-22T14:06:22;29.35;;;6.72;;
69369;SDS011;56530;42.640;23.372;2023-07-22T14:08:48;27.97;;;7.73;;
69369;SDS011;56530;42.640;23.372;2023-07-22T14:11:13;28.63;;;7.50;;
69369;SDS011;56530;42.640;23.372;2023-07-22T14:13:38;29.20;;;8.20;;
69369;SDS011;56530;42.640;23.372;2023-07-22T14:16:04;28.43;;;6.40;;
69369;SDS011;56530;42.640;23.372;2023-07-22T14:18:30;29.30;;;7.63;;
69369;SDS011;56530;42.640;23.372;2023-07-22T14:20:55;31.27;;;7.30;;